logo
Search for airport 
image banner adimage banner adimage banner ad
image banner ad

LOBN - Neunkirchen Kh

Located in District Neunkirchen, Austria

ICAO - , IATA -

Data provided by Airmate  

General information

Coordinates: N47°43'36" E16°5'11"
Elevation is 1272 feet MSL.
 
View others Airports in Lower Austria

Operational data

Special qualification required
Current time UTC:
Current local time:
Weather at : LOXN - Wr. Neustadt/West ( 16 km )
TAF: TAF LOXN 150815Z 1509/1518 30010KT 9999 FEW050 BKN100 TEMPO 1510/1515 34018G28KT TEMPO 1513/1518 SHRA FEW040CB SCT050 BKN080 PROB40 TEMPO 1513/1518 TSRA
View NOTAMs / SUP AIP / TFR affecting this airport [VIEW]
Communications frequencies: [VIEW]

Runways:

Airport contact information

Address: District Neunkirchen Austria

Satellite view of LOBN